sensor_id;sensor_type;location;lat;lon;timestamp;pressure;altitude;pressure_sealevel;temperature;humidity
59558;BME280;45379;51.486;5.434;2022-07-10T00:01:58;102830.91;;;15.62;73.57
59558;BME280;45379;51.486;5.434;2022-07-10T00:04:23;102822.16;;;15.60;73.46
59558;BME280;45379;51.486;5.434;2022-07-10T00:06:49;102830.16;;;15.59;73.74
59558;BME280;45379;51.486;5.434;2022-07-10T00:09:15;102826.88;;;15.54;73.75
59558;BME280;45379;51.486;5.434;2022-07-10T00:11:42;102837.66;;;15.49;73.93
59558;BME280;45379;51.486;5.434;2022-07-10T00:14:08;102841.16;;;15.50;74.15
59558;BME280;45379;51.486;5.434;2022-07-10T00:16:34;102833.16;;;15.51;73.89
59558;BME280;45379;51.486;5.434;2022-07-10T00:19:00;102829.72;;;15.49;74.09
59558;BME280;45379;51.486;5.434;2022-07-10T00:21:26;102828.91;;;15.47;74.14
59558;BME280;45379;51.486;5.434;2022-07-10T00:23:52;102835.16;;;15.46;74.28
59558;BME280;45379;51.486;5.434;2022-07-10T00:26:18;102833.56;;;15.42;74.55
59558;BME280;45379;51.486;5.434;2022-07-10T00:28:44;102826.53;;;15.41;74.73
59558;BME280;45379;51.486;5.434;2022-07-10T00:31:09;102825.94;;;15.34;74.61
59558;BME280;45379;51.486;5.434;2022-07-10T00:33:37;102825.78;;;15.37;74.65
59558;BME280;45379;51.486;5.434;2022-07-10T00:36:05;102831.16;;;15.36;75.07
59558;BME280;45379;51.486;5.434;2022-07-10T00:38:31;102833.03;;;15.34;74.79
59558;BME280;45379;51.486;5.434;2022-07-10T00:40:57;102824.22;;;15.33;74.99
59558;BME280;45379;51.486;5.434;2022-07-10T00:43:23;102823.53;;;15.28;75.19
59558;BME280;45379;51.486;5.434;2022-07-10T00:45:49;102818.31;;;15.27;75.69
59558;BME280;45379;51.486;5.434;2022-07-10T00:48:15;102817.56;;;15.23;75.86
59558;BME280;45379;51.486;5.434;2022-07-10T00:50:45;102815.06;;;15.20;76.68
59558;BME280;45379;51.486;5.434;2022-07-10T00:53:14;102814.13;;;15.21;76.53
59558;BME280;45379;51.486;5.434;2022-07-10T00:55:41;102810.72;;;15.18;76.27
59558;BME280;45379;51.486;5.434;2022-07-10T00:58:10;102816.09;;;15.16;76.79
59558;BME280;45379;51.486;5.434;2022-07-10T01:00:36;102820.59;;;15.14;76.46
59558;BME280;45379;51.486;5.434;2022-07-10T01:03:05;102806.56;;;15.12;76.41
59558;BME280;45379;51.486;5.434;2022-07-10T01:05:31;102808.38;;;15.12;76.33
59558;BME280;45379;51.486;5.434;2022-07-10T01:07:57;102805.75;;;15.10;76.69
59558;BME280;45379;51.486;5.434;2022-07-10T01:10:23;102805.75;;;15.10;76.37
59558;BME280;45379;51.486;5.434;2022-07-10T01:12:49;102800.44;;;15.10;76.10
59558;BME280;45379;51.486;5.434;2022-07-10T01:15:15;102794.38;;;15.08;76.51
59558;BME280;45379;51.486;5.434;2022-07-10T01:17:41;102793.44;;;15.09;76.21
59558;BME280;45379;51.486;5.434;2022-07-10T01:20:08;102792.50;;;15.10;76.13
59558;BME280;45379;51.486;5.434;2022-07-10T01:22:36;102788.94;;;15.11;76.63
59558;BME280;45379;51.486;5.434;2022-07-10T01:25:04;102789.00;;;15.09;76.27
59558;BME280;45379;51.486;5.434;2022-07-10T01:27:31;102777.53;;;15.09;76.54
59558;BME280;45379;51.486;5.434;2022-07-10T01:29:57;102783.00;;;15.06;77.06
59558;BME280;45379;51.486;5.434;2022-07-10T01:32:24;102780.41;;;15.04;76.88
59558;BME280;45379;51.486;5.434;2022-07-10T01:34:50;102781.28;;;15.05;77.01
59558;BME280;45379;51.486;5.434;2022-07-10T01:37:15;102776.09;;;15.02;77.21
59558;BME280;45379;51.486;5.434;2022-07-10T01:39:41;102774.44;;;14.99;76.96
59558;BME280;45379;51.486;5.434;2022-07-10T01:42:07;102773.56;;;14.99;77.22
59558;BME280;45379;51.486;5.434;2022-07-10T01:44:33;102769.22;;;14.98;77.39
59558;BME280;45379;51.486;5.434;2022-07-10T01:46:58;102774.53;;;14.96;77.55
59558;BME280;45379;51.486;5.434;2022-07-10T01:49:24;102780.78;;;14.95;77.54
59558;BME280;45379;51.486;5.434;2022-07-10T01:51:50;102772.97;;;14.92;77.39
59558;BME280;45379;51.486;5.434;2022-07-10T01:54:16;102783.56;;;14.92;77.57
59558;BME280;45379;51.486;5.434;2022-07-10T01:56:42;102776.59;;;14.90;77.71
59558;BME280;45379;51.486;5.434;2022-07-10T01:59:07;102777.66;;;14.86;77.92
59558;BME280;45379;51.486;5.434;2022-07-10T02:01:33;102783.06;;;14.82;78.27
59558;BME280;45379;51.486;5.434;2022-07-10T02:03:59;102781.53;;;14.77;78.66
59558;BME280;45379;51.486;5.434;2022-07-10T02:06:44;102778.03;;;14.75;79.15
59558;BME280;45379;51.486;5.434;2022-07-10T02:09:10;102783.41;;;14.73;78.86
59558;BME280;45379;51.486;5.434;2022-07-10T02:11:35;102773.84;;;14.69;78.91
59558;BME280;45379;51.486;5.434;2022-07-10T02:14:01;102784.50;;;14.68;79.09
59558;BME280;45379;51.486;5.434;2022-07-10T02:16:27;102781.88;;;14.68;79.05
59558;BME280;45379;51.486;5.434;2022-07-10T02:18:53;102784.59;;;14.66;79.15
59558;BME280;45379;51.486;5.434;2022-07-10T02:21:18;102774.13;;;14.63;79.35
59558;BME280;45379;51.486;5.434;2022-07-10T02:23:44;102775.97;;;14.61;79.69
59558;BME280;45379;51.486;5.434;2022-07-10T02:26:10;102778.81;;;14.56;79.66
59558;BME280;45379;51.486;5.434;2022-07-10T02:28:36;102783.25;;;14.56;80.04
59558;BME280;45379;51.486;5.434;2022-07-10T02:31:01;102781.50;;;14.55;79.78
59558;BME280;45379;51.486;5.434;2022-07-10T02:33:27;102775.47;;;14.51;80.01
59558;BME280;45379;51.486;5.434;2022-07-10T02:35:53;102774.63;;;14.51;80.36
59558;BME280;45379;51.486;5.434;2022-07-10T02:38:19;102774.69;;;14.49;80.51
59558;BME280;45379;51.486;5.434;2022-07-10T02:40:45;102775.56;;;14.48;80.21
59558;BME280;45379;51.486;5.434;2022-07-10T02:43:10;102773.84;;;14.47;80.33
59558;BME280;45379;51.486;5.434;2022-07-10T02:45:36;102781.88;;;14.46;80.55
59558;BME280;45379;51.486;5.434;2022-07-10T02:48:02;102770.50;;;14.44;80.38
59558;BME280;45379;51.486;5.434;2022-07-10T02:50:28;102776.72;;;14.43;80.60
59558;BME280;45379;51.486;5.434;2022-07-10T02:52:54;102771.53;;;14.40;80.98
59558;BME280;45379;51.486;5.434;2022-07-10T02:55:20;102773.31;;;14.39;81.02
59558;BME280;45379;51.486;5.434;2022-07-10T02:57:46;102769.81;;;14.39;80.65
59558;BME280;45379;51.486;5.434;2022-07-10T03:00:12;102769.81;;;14.39;80.67
59558;BME280;45379;51.486;5.434;2022-07-10T03:02:38;102773.31;;;14.39;80.70
59558;BME280;45379;51.486;5.434;2022-07-10T03:05:04;102772.34;;;14.42;80.71
59558;BME280;45379;51.486;5.434;2022-07-10T03:07:30;102771.41;;;14.43;80.89
59558;BME280;45379;51.486;5.434;2022-07-10T03:09:56;102770.56;;;14.42;81.20
59558;BME280;45379;51.486;5.434;2022-07-10T03:12:22;102769.56;;;14.45;80.96
59558;BME280;45379;51.486;5.434;2022-07-10T03:14:47;102759.13;;;14.42;81.05
59558;BME280;45379;51.486;5.434;2022-07-10T03:17:13;102764.28;;;14.45;81.56
59558;BME280;45379;51.486;5.434;2022-07-10T03:19:39;102759.84;;;14.45;81.26
59558;BME280;45379;51.486;5.434;2022-07-10T03:22:05;102760.84;;;14.43;81.26
59558;BME280;45379;51.486;5.434;2022-07-10T03:24:30;102766.16;;;14.41;81.59
59558;BME280;45379;51.486;5.434;2022-07-10T03:26:57;102767.94;;;14.41;81.77
59558;BME280;45379;51.486;5.434;2022-07-10T03:29:23;102765.31;;;14.41;82.07
59558;BME280;45379;51.486;5.434;2022-07-10T03:31:48;102761.78;;;14.40;82.70
59558;BME280;45379;51.486;5.434;2022-07-10T03:34:14;102756.56;;;14.39;82.32
59558;BME280;45379;51.486;5.434;2022-07-10T03:36:40;102755.72;;;14.38;82.61
59558;BME280;45379;51.486;5.434;2022-07-10T03:39:06;102753.06;;;14.38;82.63
59558;BME280;45379;51.486;5.434;2022-07-10T03:41:32;102748.81;;;14.34;82.78
59558;BME280;45379;51.486;5.434;2022-07-10T03:43:57;102757.50;;;14.38;82.74
59558;BME280;45379;51.486;5.434;2022-07-10T03:46:23;102748.56;;;14.40;82.38
59558;BME280;45379;51.486;5.434;2022-07-10T03:48:49;102754.72;;;14.41;82.57
59558;BME280;45379;51.486;5.434;2022-07-10T03:51:15;102748.63;;;14.39;82.59
59558;BME280;45379;51.486;5.434;2022-07-10T03:53:40;102746.91;;;14.38;83.04
59558;BME280;45379;51.486;5.434;2022-07-10T03:56:06;102749.63;;;14.36;83.44
59558;BME280;45379;51.486;5.434;2022-07-10T03:58:32;102750.34;;;14.40;83.39
59558;BME280;45379;51.486;5.434;2022-07-10T04:00:58;102745.91;;;14.40;83.22
59558;BME280;45379;51.486;5.434;2022-07-10T04:03:24;102749.63;;;14.36;83.43
59558;BME280;45379;51.486;5.434;2022-07-10T04:05:49;102751.28;;;14.39;83.34
59558;BME280;45379;51.486;5.434;2022-07-10T04:08:15;102749.50;;;14.39;83.61
59558;BME280;45379;51.486;5.434;2022-07-10T04:10:41;102746.00;;;14.39;83.62
59558;BME280;45379;51.486;5.434;2022-07-10T04:13:07;102745.06;;;14.40;83.28
59558;BME280;45379;51.486;5.434;2022-07-10T04:15:32;102744.09;;;14.42;83.44
59558;BME280;45379;51.486;5.434;2022-07-10T04:17:58;102748.41;;;14.45;83.17
59558;BME280;45379;51.486;5.434;2022-07-10T04:20:24;102738.59;;;14.47;83.23
59558;BME280;45379;51.486;5.434;2022-07-10T04:22:50;102755.31;;;14.49;83.33
59558;BME280;45379;51.486;5.434;2022-07-10T04:25:16;102758.81;;;14.49;83.38
59558;BME280;45379;51.486;5.434;2022-07-10T04:27:42;102757.88;;;14.50;83.87
59558;BME280;45379;51.486;5.434;2022-07-10T04:30:08;102758.75;;;14.51;83.76
59558;BME280;45379;51.486;5.434;2022-07-10T04:32:34;102745.38;;;14.54;84.04
59558;BME280;45379;51.486;5.434;2022-07-10T04:35:00;102745.31;;;14.55;84.65
59558;BME280;45379;51.486;5.434;2022-07-10T04:37:28;102741.78;;;14.55;85.00
59558;BME280;45379;51.486;5.434;2022-07-10T04:39:54;102752.19;;;14.60;84.21
59558;BME280;45379;51.486;5.434;2022-07-10T04:42:20;102742.47;;;14.60;84.60
59558;BME280;45379;51.486;5.434;2022-07-10T04:44:46;102753.00;;;14.62;84.10
59558;BME280;45379;51.486;5.434;2022-07-10T04:47:12;102751.16;;;14.64;84.07
59558;BME280;45379;51.486;5.434;2022-07-10T04:49:38;102752.03;;;14.64;84.28
59558;BME280;45379;51.486;5.434;2022-07-10T04:52:04;102746.59;;;14.67;84.01
59558;BME280;45379;51.486;5.434;2022-07-10T04:54:30;102739.41;;;14.71;84.33
59558;BME280;45379;51.486;5.434;2022-07-10T04:56:56;102746.34;;;14.73;84.34
59558;BME280;45379;51.486;5.434;2022-07-10T04:59:22;102753.28;;;14.77;84.04
59558;BME280;45379;51.486;5.434;2022-07-10T05:01:47;102760.22;;;14.80;84.66
59558;BME280;45379;51.486;5.434;2022-07-10T05:04:13;102764.50;;;14.84;84.82
59558;BME280;45379;51.486;5.434;2022-07-10T05:06:39;102759.13;;;14.86;84.87
59558;BME280;45379;51.486;5.434;2022-07-10T05:09:05;102754.53;;;14.89;84.74
59558;BME280;45379;51.486;5.434;2022-07-10T05:11:31;102749.06;;;14.94;84.83
59558;BME280;45379;51.486;5.434;2022-07-10T05:13:57;102740.97;;;14.97;84.71
59558;BME280;45379;51.486;5.434;2022-07-10T05:16:23;102752.25;;;15.02;84.58
59558;BME280;45379;51.486;5.434;2022-07-10T05:18:49;102754.78;;;15.05;84.55
59558;BME280;45379;51.486;5.434;2022-07-10T05:21:15;102756.16;;;15.14;84.74
59558;BME280;45379;51.486;5.434;2022-07-10T05:23:41;102763.97;;;15.17;84.77
59558;BME280;45379;51.486;5.434;2022-07-10T05:26:07;102758.63;;;15.18;84.66
59558;BME280;45379;51.486;5.434;2022-07-10T05:28:33;102755.69;;;15.24;84.27
59558;BME280;45379;51.486;5.434;2022-07-10T05:30:59;102752.84;;;15.29;84.13
59558;BME280;45379;51.486;5.434;2022-07-10T05:33:25;102757.16;;;15.31;84.24
59558;BME280;45379;51.486;5.434;2022-07-10T05:35:53;102743.44;;;15.42;84.10
59558;BME280;45379;51.486;5.434;2022-07-10T05:38:19;102751.78;;;15.53;83.76
59558;BME280;45379;51.486;5.434;2022-07-10T05:40:45;102750.50;;;15.62;83.88
59558;BME280;45379;51.486;5.434;2022-07-10T05:43:10;102754.44;;;15.72;83.25
59558;BME280;45379;51.486;5.434;2022-07-10T05:45:38;102749.66;;;15.80;83.25
59558;BME280;45379;51.486;5.434;2022-07-10T05:48:03;102751.91;;;15.89;82.85
59558;BME280;45379;51.486;5.434;2022-07-10T05:50:29;102752.38;;;15.99;82.79
59558;BME280;45379;51.486;5.434;2022-07-10T05:52:56;102753.81;;;16.06;82.46
59558;BME280;45379;51.486;5.434;2022-07-10T05:55:22;102752.56;;;16.13;82.19
59558;BME280;45379;51.486;5.434;2022-07-10T05:57:48;102755.72;;;16.22;82.12
59558;BME280;45379;51.486;5.434;2022-07-10T06:00:14;102756.28;;;16.28;81.99
59558;BME280;45379;51.486;5.434;2022-07-10T06:02:40;102756.66;;;16.39;82.20
59558;BME280;45379;51.486;5.434;2022-07-10T06:05:06;102755.13;;;16.53;81.83
59558;BME280;45379;51.486;5.434;2022-07-10T06:07:32;102766.16;;;16.62;81.50
59558;BME280;45379;51.486;5.434;2022-07-10T06:09:58;102750.69;;;16.70;81.11
59558;BME280;45379;51.486;5.434;2022-07-10T06:12:24;102750.34;;;16.78;80.90
59558;BME280;45379;51.486;5.434;2022-07-10T06:14:50;102756.91;;;16.88;80.91
59558;BME280;45379;51.486;5.434;2022-07-10T06:17:15;102749.28;;;16.99;80.50
59558;BME280;45379;51.486;5.434;2022-07-10T06:19:41;102743.19;;;17.15;80.85
59558;BME280;45379;51.486;5.434;2022-07-10T06:22:07;102755.03;;;17.25;80.24
59558;BME280;45379;51.486;5.434;2022-07-10T06:24:51;102740.94;;;17.40;80.20
59558;BME280;45379;51.486;5.434;2022-07-10T06:27:17;102738.69;;;17.50;79.45
59558;BME280;45379;51.486;5.434;2022-07-10T06:29:43;102746.56;;;17.51;79.29
59558;BME280;45379;51.486;5.434;2022-07-10T06:32:09;102752.28;;;17.44;78.47
59558;BME280;45379;51.486;5.434;2022-07-10T06:34:35;102753.59;;;17.52;78.46
59558;BME280;45379;51.486;5.434;2022-07-10T06:37:02;102746.94;;;17.61;78.42
59558;BME280;45379;51.486;5.434;2022-07-10T06:39:32;102743.00;;;17.68;78.92
59558;BME280;45379;51.486;5.434;2022-07-10T06:42:06;102738.59;;;17.84;78.99
59558;BME280;45379;51.486;5.434;2022-07-10T06:44:32;102738.06;;;17.94;78.13
59558;BME280;45379;51.486;5.434;2022-07-10T06:46:59;102726.88;;;18.04;77.75
59558;BME280;45379;51.486;5.434;2022-07-10T06:49:46;102733.25;;;18.18;76.91
59558;BME280;45379;51.486;5.434;2022-07-10T06:52:14;102726.78;;;18.22;76.06
59558;BME280;45379;51.486;5.434;2022-07-10T06:54:41;102741.03;;;18.36;76.42
59558;BME280;45379;51.486;5.434;2022-07-10T06:57:07;102730.63;;;18.48;76.21
59558;BME280;45379;51.486;5.434;2022-07-10T06:59:33;102732.66;;;18.58;76.10
59558;BME280;45379;51.486;5.434;2022-07-10T07:02:02;102737.91;;;18.60;76.48
59558;BME280;45379;51.486;5.434;2022-07-10T07:04:27;102730.69;;;18.62;75.85
59558;BME280;45379;51.486;5.434;2022-07-10T07:06:53;102729.78;;;18.77;75.65
59558;BME280;45379;51.486;5.434;2022-07-10T07:09:19;102735.44;;;18.87;75.45
59558;BME280;45379;51.486;5.434;2022-07-10T07:11:45;102731.91;;;18.86;75.54
59558;BME280;45379;51.486;5.434;2022-07-10T07:14:11;102734.09;;;18.80;75.51
59558;BME280;45379;51.486;5.434;2022-07-10T07:16:37;102735.22;;;18.76;75.38
59558;BME280;45379;51.486;5.434;2022-07-10T07:19:05;102740.44;;;18.77;75.15
59558;BME280;45379;51.486;5.434;2022-07-10T07:21:32;102736.97;;;18.91;75.56
59558;BME280;45379;51.486;5.434;2022-07-10T07:24:17;102740.06;;;18.99;75.40
59558;BME280;45379;51.486;5.434;2022-07-10T07:26:46;102741.34;;;19.08;75.47
59558;BME280;45379;51.486;5.434;2022-07-10T07:29:16;102743.81;;;19.11;75.11
59558;BME280;45379;51.486;5.434;2022-07-10T07:31:42;102746.56;;;19.09;75.01
59558;BME280;45379;51.486;5.434;2022-07-10T07:34:09;102744.22;;;19.19;75.23
59558;BME280;45379;51.486;5.434;2022-07-10T07:36:35;102748.91;;;19.30;74.91
59558;BME280;45379;51.486;5.434;2022-07-10T07:39:01;102750.63;;;19.31;74.61
59558;BME280;45379;51.486;5.434;2022-07-10T07:42:04;102742.03;;;19.26;74.84
59558;BME280;45379;51.486;5.434;2022-07-10T07:44:52;102743.19;;;19.22;76.39
59558;BME280;45379;51.486;5.434;2022-07-10T07:51:02;102745.88;;;19.36;75.97
59558;BME280;45379;51.486;5.434;2022-07-10T07:53:46;102738.44;;;19.41;75.74
59558;BME280;45379;51.486;5.434;2022-07-10T07:57:04;102737.03;;;19.50;76.17
59558;BME280;45379;51.486;5.434;2022-07-10T08:04:05;102745.88;;;19.50;76.52
59558;BME280;45379;51.486;5.434;2022-07-10T08:06:45;102749.50;;;19.63;75.15
59558;BME280;45379;51.486;5.434;2022-07-10T08:09:31;102747.88;;;19.61;74.48
59558;BME280;45379;51.486;5.434;2022-07-10T08:12:01;102744.94;;;19.51;74.06
59558;BME280;45379;51.486;5.434;2022-07-10T08:14:29;102739.97;;;19.45;75.15
59558;BME280;45379;51.486;5.434;2022-07-10T08:16:55;102736.59;;;19.41;74.60
59558;BME280;45379;51.486;5.434;2022-07-10T08:19:21;102735.75;;;19.41;74.55
59558;BME280;45379;51.486;5.434;2022-07-10T08:21:47;102734.63;;;19.45;74.29
59558;BME280;45379;51.486;5.434;2022-07-10T08:24:12;102727.28;;;19.48;74.19
59558;BME280;45379;51.486;5.434;2022-07-10T08:26:40;102732.34;;;19.53;74.17
59558;BME280;45379;51.486;5.434;2022-07-10T08:29:07;102734.34;;;19.64;74.18
59558;BME280;45379;51.486;5.434;2022-07-10T08:31:33;102741.03;;;19.71;74.33
59558;BME280;45379;51.486;5.434;2022-07-10T08:33:59;102740.72;;;19.75;73.64
59558;BME280;45379;51.486;5.434;2022-07-10T08:36:26;102738.72;;;19.79;73.31
59558;BME280;45379;51.486;5.434;2022-07-10T08:38:53;102729.31;;;19.88;73.46
59558;BME280;45379;51.486;5.434;2022-07-10T08:41:26;102725.50;;;19.92;73.60
59558;BME280;45379;51.486;5.434;2022-07-10T08:43:52;102740.91;;;19.87;73.36
59558;BME280;45379;51.486;5.434;2022-07-10T08:46:18;102738.41;;;19.84;73.33
59558;BME280;45379;51.486;5.434;2022-07-10T08:48:49;102732.91;;;19.72;73.25
59558;BME280;45379;51.486;5.434;2022-07-10T08:51:40;102738.72;;;19.65;74.14
59558;BME280;45379;51.486;5.434;2022-07-10T08:54:08;102734.91;;;19.69;73.93
59558;BME280;45379;51.486;5.434;2022-07-10T08:56:34;102744.72;;;19.68;73.74
59558;BME280;45379;51.486;5.434;2022-07-10T08:59:03;102743.22;;;19.64;74.16
59558;BME280;45379;51.486;5.434;2022-07-10T09:01:31;102745.19;;;19.61;74.04
59558;BME280;45379;51.486;5.434;2022-07-10T09:03:58;102748.44;;;19.52;74.06
59558;BME280;45379;51.486;5.434;2022-07-10T09:06:24;102747.50;;;19.53;74.05
59558;BME280;45379;51.486;5.434;2022-07-10T09:09:06;102746.53;;;19.54;75.15
59558;BME280;45379;51.486;5.434;2022-07-10T09:11:34;102744.13;;;19.49;74.80
59558;BME280;45379;51.486;5.434;2022-07-10T09:14:03;102734.53;;;19.46;74.44
59558;BME280;45379;51.486;5.434;2022-07-10T09:16:32;102739.22;;;19.43;74.44
59558;BME280;45379;51.486;5.434;2022-07-10T09:21:50;102737.09;;;19.48;74.78
59558;BME280;45379;51.486;5.434;2022-07-10T09:24:16;102723.47;;;19.53;76.34
59558;BME280;45379;51.486;5.434;2022-07-10T09:27:03;102723.84;;;19.61;75.81
59558;BME280;45379;51.486;5.434;2022-07-10T09:29:31;102724.44;;;19.66;75.07
59558;BME280;45379;51.486;5.434;2022-07-10T09:32:00;102724.69;;;19.75;74.88
59558;BME280;45379;51.486;5.434;2022-07-10T09:34:38;102719.56;;;19.87;74.21
59558;BME280;45379;51.486;5.434;2022-07-10T09:37:29;102715.56;;;19.94;74.55
59558;BME280;45379;51.486;5.434;2022-07-10T09:39:58;102710.69;;;20.00;73.45
59558;BME280;45379;51.486;5.434;2022-07-10T09:47:41;102713.16;;;20.04;73.65
59558;BME280;45379;51.486;5.434;2022-07-10T09:52:57;102706.56;;;20.09;74.13
59558;BME280;45379;51.486;5.434;2022-07-10T09:55:27;102712.63;;;20.25;73.85
59558;BME280;45379;51.486;5.434;2022-07-10T09:58:02;102704.97;;;20.34;73.33
59558;BME280;45379;51.486;5.434;2022-07-10T10:00:30;102703.06;;;20.36;73.36
59558;BME280;45379;51.486;5.434;2022-07-10T10:03:05;102707.25;;;20.40;73.32
59558;BME280;45379;51.486;5.434;2022-07-10T10:08:21;102701.69;;;20.43;73.66
59558;BME280;45379;51.486;5.434;2022-07-10T10:10:50;102703.56;;;20.55;72.37
59558;BME280;45379;51.486;5.434;2022-07-10T10:13:24;102701.94;;;20.52;71.67
59558;BME280;45379;51.486;5.434;2022-07-10T10:15:54;102699.06;;;20.55;72.39
59558;BME280;45379;51.486;5.434;2022-07-10T10:18:25;102704.31;;;20.57;71.72
59558;BME280;45379;51.486;5.434;2022-07-10T10:20:54;102706.69;;;20.62;72.17
59558;BME280;45379;51.486;5.434;2022-07-10T10:23:23;102711.13;;;20.75;72.07
59558;BME280;45379;51.486;5.434;2022-07-10T10:25:53;102713.72;;;20.90;71.52
59558;BME280;45379;51.486;5.434;2022-07-10T10:28:21;102693.41;;;21.00;71.29
59558;BME280;45379;51.486;5.434;2022-07-10T10:30:59;102695.66;;;21.06;71.35
59558;BME280;45379;51.486;5.434;2022-07-10T10:36:03;102682.19;;;21.33;71.33
59558;BME280;45379;51.486;5.434;2022-07-10T10:41:41;102692.56;;;21.37;71.52
59558;BME280;45379;51.486;5.434;2022-07-10T10:49:17;102684.31;;;21.41;70.66
59558;BME280;45379;51.486;5.434;2022-07-10T10:52:02;102683.13;;;21.45;70.22
59558;BME280;45379;51.486;5.434;2022-07-10T10:54:31;102677.13;;;21.54;70.29
59558;BME280;45379;51.486;5.434;2022-07-10T10:57:16;102676.78;;;21.71;70.89
59558;BME280;45379;51.486;5.434;2022-07-10T10:59:53;102671.06;;;21.88;69.87
59558;BME280;45379;51.486;5.434;2022-07-10T11:08:02;102674.59;;;21.89;69.07
59558;BME280;45379;51.486;5.434;2022-07-10T11:10:39;102668.91;;;21.94;69.05
59558;BME280;45379;51.486;5.434;2022-07-10T11:13:12;102668.91;;;21.94;68.74
59558;BME280;45379;51.486;5.434;2022-07-10T11:18:18;102664.38;;;22.07;69.35
59558;BME280;45379;51.486;5.434;2022-07-10T11:20:46;102659.97;;;22.06;68.87
59558;BME280;45379;51.486;5.434;2022-07-10T11:23:56;102666.28;;;22.05;68.24
59558;BME280;45379;51.486;5.434;2022-07-10T11:26:49;102659.88;;;22.07;68.11
59558;BME280;45379;51.486;5.434;2022-07-10T11:29:20;102647.34;;;22.08;68.89
59558;BME280;45379;51.486;5.434;2022-07-10T11:31:53;102654.38;;;22.09;68.09
59558;BME280;45379;51.486;5.434;2022-07-10T11:34:21;102650.41;;;22.14;68.22
59558;BME280;45379;51.486;5.434;2022-07-10T11:36:47;102649.06;;;22.20;68.23
59558;BME280;45379;51.486;5.434;2022-07-10T11:39:14;102656.66;;;22.26;68.36
59558;BME280;45379;51.486;5.434;2022-07-10T11:41:44;102657.75;;;22.24;66.77
59558;BME280;45379;51.486;5.434;2022-07-10T11:44:17;102656.63;;;22.15;67.84
59558;BME280;45379;51.486;5.434;2022-07-10T11:46:44;102649.59;;;22.25;68.96
59558;BME280;45379;51.486;5.434;2022-07-10T11:49:11;102649.47;;;22.27;68.17
59558;BME280;45379;51.486;5.434;2022-07-10T11:51:40;102643.44;;;22.36;68.13
59558;BME280;45379;51.486;5.434;2022-07-10T11:54:08;102637.78;;;22.52;68.51
59558;BME280;45379;51.486;5.434;2022-07-10T11:56:38;102631.72;;;22.61;67.59
59558;BME280;45379;51.486;5.434;2022-07-10T11:59:09;102626.81;;;22.43;67.45
59558;BME280;45379;51.486;5.434;2022-07-10T12:01:47;102626.16;;;22.40;66.19
59558;BME280;45379;51.486;5.434;2022-07-10T12:04:16;102632.03;;;22.45;67.18
59558;BME280;45379;51.486;5.434;2022-07-10T12:06:47;102625.59;;;22.47;66.29
59558;BME280;45379;51.486;5.434;2022-07-10T12:09:16;102626.56;;;22.46;67.25
59558;BME280;45379;51.486;5.434;2022-07-10T12:11:57;102629.63;;;22.53;67.79
59558;BME280;45379;51.486;5.434;2022-07-10T12:14:23;102636.13;;;22.73;67.93
59558;BME280;45379;51.486;5.434;2022-07-10T12:16:51;102643.94;;;22.65;66.75
59558;BME280;45379;51.486;5.434;2022-07-10T12:19:22;102640.53;;;22.63;67.09
59558;BME280;45379;51.486;5.434;2022-07-10T12:21:48;102638.31;;;22.68;65.97
59558;BME280;45379;51.486;5.434;2022-07-10T12:24:17;102635.16;;;22.74;66.52
59558;BME280;45379;51.486;5.434;2022-07-10T12:26:45;102637.13;;;22.72;67.37
59558;BME280;45379;51.486;5.434;2022-07-10T12:29:27;102645.66;;;22.77;66.49
59558;BME280;45379;51.486;5.434;2022-07-10T12:31:59;102638.47;;;22.78;67.19
59558;BME280;45379;51.486;5.434;2022-07-10T12:34:41;102636.16;;;22.95;67.03
59558;BME280;45379;51.486;5.434;2022-07-10T12:37:19;102633.66;;;23.16;66.54
59558;BME280;45379;51.486;5.434;2022-07-10T12:39:54;102639.41;;;23.23;65.84
59558;BME280;45379;51.486;5.434;2022-07-10T12:42:31;102626.34;;;23.41;65.87
59558;BME280;45379;51.486;5.434;2022-07-10T12:45:14;102639.25;;;23.58;65.92
59558;BME280;45379;51.486;5.434;2022-07-10T12:47:48;102636.19;;;23.74;64.71
59558;BME280;45379;51.486;5.434;2022-07-10T12:50:16;102641.56;;;23.74;65.58
59558;BME280;45379;51.486;5.434;2022-07-10T12:52:46;102633.50;;;23.74;65.67
59558;BME280;45379;51.486;5.434;2022-07-10T12:55:16;102633.75;;;23.71;63.79
59558;BME280;45379;51.486;5.434;2022-07-10T12:57:56;102626.88;;;23.78;63.35
59558;BME280;45379;51.486;5.434;2022-07-10T13:00:35;102626.25;;;23.86;63.92
59558;BME280;45379;51.486;5.434;2022-07-10T13:03:09;102624.44;;;23.97;63.83
59558;BME280;45379;51.486;5.434;2022-07-10T13:05:42;102622.94;;;24.04;63.80
59558;BME280;45379;51.486;5.434;2022-07-10T13:10:44;102612.41;;;24.13;64.39
59558;BME280;45379;51.486;5.434;2022-07-10T13:13:16;102607.53;;;24.06;63.36
59558;BME280;45379;51.486;5.434;2022-07-10T13:15:51;102605.19;;;24.13;64.32
59558;BME280;45379;51.486;5.434;2022-07-10T13:18:46;102609.16;;;24.30;63.75
59558;BME280;45379;51.486;5.434;2022-07-10T13:21:12;102593.94;;;24.40;64.32
59558;BME280;45379;51.486;5.434;2022-07-10T13:23:38;102595.13;;;24.47;63.94
59558;BME280;45379;51.486;5.434;2022-07-10T13:26:05;102602.16;;;24.39;63.84
59558;BME280;45379;51.486;5.434;2022-07-10T13:28:33;102594.66;;;24.42;63.76
59558;BME280;45379;51.486;5.434;2022-07-10T13:30:59;102597.75;;;24.38;63.55
59558;BME280;45379;51.486;5.434;2022-07-10T13:33:26;102593.59;;;24.54;63.83
59558;BME280;45379;51.486;5.434;2022-07-10T13:35:53;102589.19;;;24.65;64.10
59558;BME280;45379;51.486;5.434;2022-07-10T13:38:20;102587.94;;;24.69;64.32
59558;BME280;45379;51.486;5.434;2022-07-10T13:40:46;102590.56;;;24.80;63.90
59558;BME280;45379;51.486;5.434;2022-07-10T13:43:14;102587.66;;;24.93;63.50